Time;durP1;ratioP1;P1;durP2;ratioP2;P2;SDS_P1;SDS_P2;PMS_P1;PMS_P2;Temp;Humidity;BMP_temperature;BMP_pressure;BME280_temperature;BME280_humidity;BME280_pressure;Samples;Min_cycle;Max_cycle;Signal;HPM_P1;HPM_P2
2023/06/02 00:01:02;;;;;;;4.47;3.47;;;;;;;;;;5013496;28;20440;-49
2023/06/02 00:03:30;;;;;;;5.25;3.97;;;;;;;;;;5021138;28;20433;-48
2023/06/02 00:05:57;;;;;;;6.35;3.50;;;;;;;;;;5015720;28;20616;-46
2023/06/02 00:08:23;;;;;;;7.72;3.92;;;;;;;;;;5007977;28;20451;-48
2023/06/02 00:10:49;;;;;;;6.32;3.78;;;;;;;;;;5015941;28;20192;-49
2023/06/02 00:13:15;;;;;;;5.97;3.80;;;;;;;;;;5014373;28;20180;-48
2023/06/02 00:15:41;;;;;;;6.20;3.60;;;;;;;;;;5010721;28;20200;-48
2023/06/02 00:18:08;;;;;;;5.80;3.53;;;;;;;;;;5008055;28;20187;-48
2023/06/02 00:20:34;;;;;;;6.45;3.58;;;;;;;;;;5026803;28;20580;-48
2023/06/02 00:23:02;;;;;;;5.50;4.00;;;;;;;;;;5008323;28;20264;-48
2023/06/02 00:25:28;;;;;;;6.57;3.60;;;;;;;;;;5014091;28;20180;-48
2023/06/02 00:27:54;;;;;;;10.45;3.47;;;;;;;;;;5005041;28;20181;-48
2023/06/02 00:30:20;;;;;;;5.07;3.28;;;;;;;;;;5011709;28;20241;-48
2023/06/02 00:32:46;;;;;;;6.10;4.07;;;;;;;;;;5019242;28;20198;-48
2023/06/02 00:35:12;;;;;;;4.35;3.67;;;;;;;;;;5018232;28;20302;-48
2023/06/02 00:37:38;;;;;;;4.95;4.15;;;;;;;;;;5007276;28;20299;-48
2023/06/02 00:40:04;;;;;;;5.05;3.42;;;;;;;;;;5013598;28;20252;-48
2023/06/02 00:42:30;;;;;;;6.82;4.07;;;;;;;;;;5007480;28;20177;-49
2023/06/02 00:44:56;;;;;;;8.07;3.85;;;;;;;;;;5015141;28;20301;-48
2023/06/02 00:47:22;;;;;;;4.63;3.55;;;;;;;;;;5013238;28;20602;-48
2023/06/02 00:49:48;;;;;;;4.53;3.25;;;;;;;;;;5014686;28;20189;-48
2023/06/02 00:52:14;;;;;;;4.88;3.20;;;;;;;;;;5008913;28;20463;-48
2023/06/02 00:54:40;;;;;;;5.93;3.58;;;;;;;;;;5012500;28;20556;-48
2023/06/02 00:57:07;;;;;;;3.80;3.22;;;;;;;;;;5007533;28;20263;-47
2023/06/02 00:59:33;;;;;;;7.60;3.65;;;;;;;;;;5007999;28;20215;-48
2023/06/02 01:02:00;;;;;;;6.72;3.58;;;;;;;;;;5012411;28;20200;-48
2023/06/02 01:04:26;;;;;;;4.53;3.83;;;;;;;;;;5015083;28;20188;-48
2023/06/02 01:06:53;;;;;;;4.13;3.20;;;;;;;;;;5013223;28;20215;-48
2023/06/02 01:09:19;;;;;;;7.18;3.80;;;;;;;;;;5014796;28;20180;-48
2023/06/02 01:11:47;;;;;;;5.35;3.47;;;;;;;;;;5011851;28;20172;-48
2023/06/02 01:14:13;;;;;;;4.30;3.33;;;;;;;;;;5017780;28;20575;-48
2023/06/02 01:16:39;;;;;;;5.70;3.28;;;;;;;;;;5012981;28;20223;-48
2023/06/02 01:19:06;;;;;;;5.55;3.85;;;;;;;;;;5013151;28;20263;-48
2023/06/02 01:21:37;;;;;;;5.15;3.65;;;;;;;;;;5013779;28;20200;-48
2023/06/02 01:24:03;;;;;;;8.52;4.13;;;;;;;;;;5003426;28;20263;-48
2023/06/02 01:26:34;;;;;;;5.53;3.60;;;;;;;;;;5013200;28;20214;-48
2023/06/02 01:28:59;;;;;;;7.32;3.63;;;;;;;;;;5014098;28;20176;-48
2023/06/02 01:31:27;;;;;;;8.18;3.60;;;;;;;;;;5012730;28;20207;-48
2023/06/02 01:33:56;;;;;;;3.65;3.33;;;;;;;;;;5014201;28;20493;-48
2023/06/02 01:36:23;;;;;;;5.28;3.95;;;;;;;;;;5010416;28;20290;-48
2023/06/02 01:38:50;;;;;;;5.60;3.83;;;;;;;;;;5013726;28;20169;-48
2023/06/02 01:41:16;;;;;;;7.55;3.20;;;;;;;;;;5013354;28;20184;-47
2023/06/02 01:43:42;;;;;;;8.70;4.13;;;;;;;;;;5014195;28;20325;-50
2023/06/02 01:46:09;;;;;;;5.93;3.60;;;;;;;;;;5010382;28;20763;-48
2023/06/02 01:48:35;;;;;;;5.75;3.22;;;;;;;;;;5012890;28;20180;-48
2023/06/02 01:51:02;;;;;;;7.90;3.67;;;;;;;;;;5015809;28;20216;-48
2023/06/02 01:53:28;;;;;;;6.65;3.50;;;;;;;;;;5019793;28;20188;-48
2023/06/02 01:55:54;;;;;;;8.73;3.80;;;;;;;;;;5012349;28;20572;-48
2023/06/02 01:58:21;;;;;;;7.10;3.28;;;;;;;;;;5009465;28;20176;-48
2023/06/02 02:00:46;;;;;;;6.13;3.22;;;;;;;;;;5012676;28;20509;-48
2023/06/02 02:03:13;;;;;;;5.50;2.90;;;;;;;;;;5012840;28;20363;-48
2023/06/02 02:05:39;;;;;;;5.85;3.35;;;;;;;;;;5011682;28;20195;-48
2023/06/02 02:08:05;;;;;;;7.95;3.25;;;;;;;;;;5007405;28;20184;-48
2023/06/02 02:10:31;;;;;;;4.00;3.13;;;;;;;;;;5016523;28;20206;-48
2023/06/02 02:12:57;;;;;;;5.38;2.83;;;;;;;;;;5007299;28;20216;-48
2023/06/02 02:15:23;;;;;;;6.95;3.28;;;;;;;;;;5012625;28;20319;-48
2023/06/02 02:17:49;;;;;;;5.55;3.47;;;;;;;;;;5012394;28;20262;-48
2023/06/02 02:20:19;;;;;;;6.32;3.20;;;;;;;;;;5016730;28;20522;-48
2023/06/02 02:22:45;;;;;;;8.63;3.13;;;;;;;;;;5010365;28;20188;-48
2023/06/02 02:25:12;;;;;;;7.25;3.35;;;;;;;;;;5010954;28;20188;-48
2023/06/02 02:27:38;;;;;;;7.43;3.10;;;;;;;;;;5013709;28;20212;-48
2023/06/02 02:30:05;;;;;;;7.10;3.00;;;;;;;;;;5011623;28;20187;-48
2023/06/02 02:32:33;;;;;;;5.07;2.97;;;;;;;;;;5012699;28;20568;-48
2023/06/02 02:34:59;;;;;;;4.97;2.75;;;;;;;;;;5010925;28;20300;-48
2023/06/02 02:37:25;;;;;;;7.78;3.40;;;;;;;;;;5013529;28;20287;-48
2023/06/02 02:39:51;;;;;;;4.75;3.03;;;;;;;;;;5015528;28;20555;-48
2023/06/02 02:42:16;;;;;;;5.80;3.45;;;;;;;;;;5012959;28;20207;-48
2023/06/02 02:44:42;;;;;;;4.75;2.83;;;;;;;;;;5012724;28;20185;-48
2023/06/02 02:47:08;;;;;;;8.93;3.10;;;;;;;;;;5011301;28;20507;-48
2023/06/02 02:49:34;;;;;;;6.18;3.05;;;;;;;;;;5017307;28;20180;-48
2023/06/02 02:52:00;;;;;;;6.15;2.90;;;;;;;;;;5011873;28;20231;-48
2023/06/02 02:54:26;;;;;;;4.90;3.45;;;;;;;;;;5017164;28;20222;-48
2023/06/02 02:56:52;;;;;;;6.13;2.95;;;;;;;;;;5015038;28;20204;-47
2023/06/02 02:59:18;;;;;;;4.43;3.13;;;;;;;;;;5016520;28;20181;-48
2023/06/02 03:01:46;;;;;;;7.68;3.22;;;;;;;;;;5009316;28;20235;-48
2023/06/02 03:04:18;;;;;;;5.00;2.85;;;;;;;;;;5010843;28;20173;-48
2023/06/02 03:06:45;;;;;;;7.95;3.40;;;;;;;;;;5012312;28;20275;-48
2023/06/02 03:09:11;;;;;;;6.85;3.22;;;;;;;;;;5014551;28;20243;-48
2023/06/02 03:11:37;;;;;;;5.75;3.10;;;;;;;;;;5021210;28;20184;-48
2023/06/02 03:14:03;;;;;;;7.18;4.03;;;;;;;;;;5012659;28;20253;-48
2023/06/02 03:16:29;;;;;;;6.57;3.35;;;;;;;;;;5014926;28;20240;-48
2023/06/02 03:18:56;;;;;;;5.35;3.00;;;;;;;;;;5016556;28;20219;-48
2023/06/02 03:21:22;;;;;;;7.50;3.17;;;;;;;;;;5037598;28;20316;-48
2023/06/02 03:23:49;;;;;;;4.30;3.53;;;;;;;;;;5016829;28;20565;-48
2023/06/02 03:26:15;;;;;;;5.50;3.53;;;;;;;;;;5015552;28;20591;-48
2023/06/02 03:28:42;;;;;;;7.57;3.08;;;;;;;;;;5012279;28;20184;-48
2023/06/02 03:31:08;;;;;;;6.20;3.63;;;;;;;;;;5015179;28;20446;-48
2023/06/02 03:33:34;;;;;;;4.75;2.97;;;;;;;;;;5019981;28;20207;-47
2023/06/02 03:36:00;;;;;;;5.88;3.10;;;;;;;;;;5014975;28;20208;-49
2023/06/02 03:38:26;;;;;;;4.15;2.67;;;;;;;;;;5014753;28;20216;-48
2023/06/02 03:40:52;;;;;;;5.00;2.45;;;;;;;;;;5019388;28;20192;-48
2023/06/02 03:43:18;;;;;;;6.13;2.63;;;;;;;;;;5013903;28;20195;-47
2023/06/02 03:45:45;;;;;;;5.65;3.20;;;;;;;;;;5013985;28;20176;-48
2023/06/02 03:48:11;;;;;;;7.75;3.35;;;;;;;;;;5010243;28;20192;-48
2023/06/02 03:50:38;;;;;;;9.00;3.28;;;;;;;;;;5015881;28;20203;-49
2023/06/02 03:53:05;;;;;;;7.65;3.38;;;;;;;;;;5016354;28;20176;-48
2023/06/02 03:55:31;;;;;;;14.85;4.85;;;;;;;;;;5016411;28;20200;-48
2023/06/02 03:57:56;;;;;;;16.15;4.40;;;;;;;;;;5016230;28;20190;-48
2023/06/02 04:00:22;;;;;;;12.73;4.63;;;;;;;;;;5015945;28;20188;-48
2023/06/02 04:02:48;;;;;;;10.05;3.88;;;;;;;;;;5014588;28;20200;-49
2023/06/02 04:05:15;;;;;;;8.15;3.63;;;;;;;;;;5016435;28;20451;-49
2023/06/02 04:07:41;;;;;;;10.90;3.67;;;;;;;;;;5015624;28;20218;-48
2023/06/02 04:10:07;;;;;;;9.60;4.10;;;;;;;;;;5020130;28;20188;-49
2023/06/02 04:12:33;;;;;;;7.63;3.63;;;;;;;;;;5010352;28;20192;-48
2023/06/02 04:14:59;;;;;;;8.63;3.55;;;;;;;;;;5014885;28;20443;-48
2023/06/02 04:17:25;;;;;;;11.48;3.60;;;;;;;;;;5014038;28;20195;-49
2023/06/02 04:19:52;;;;;;;12.40;3.45;;;;;;;;;;5017743;28;20228;-49
2023/06/02 04:22:18;;;;;;;11.88;3.25;;;;;;;;;;5018776;28;20267;-48
2023/06/02 04:24:45;;;;;;;9.15;2.95;;;;;;;;;;5015547;28;20292;-49
2023/06/02 04:27:11;;;;;;;7.55;3.72;;;;;;;;;;5009310;28;20169;-48
2023/06/02 04:29:37;;;;;;;12.07;3.60;;;;;;;;;;5012770;28;20176;-48
2023/06/02 04:32:04;;;;;;;8.68;3.35;;;;;;;;;;5018225;28;20211;-48
2023/06/02 04:34:31;;;;;;;10.93;3.20;;;;;;;;;;5015320;28;20184;-49
2023/06/02 04:36:57;;;;;;;4.72;2.75;;;;;;;;;;5014545;28;20216;-49
2023/06/02 04:39:23;;;;;;;6.38;3.13;;;;;;;;;;5014841;28;20233;-48
2023/06/02 04:41:49;;;;;;;7.90;3.08;;;;;;;;;;5020253;28;20184;-48
2023/06/02 04:44:16;;;;;;;8.05;2.92;;;;;;;;;;5014804;28;20175;-48
2023/06/02 04:46:42;;;;;;;7.00;2.80;;;;;;;;;;5012506;28;20785;-48
2023/06/02 04:49:09;;;;;;;12.45;3.03;;;;;;;;;;5011259;28;20216;-49
2023/06/02 04:51:35;;;;;;;11.23;3.08;;;;;;;;;;5014110;28;20199;-49
2023/06/02 04:54:01;;;;;;;8.02;2.80;;;;;;;;;;5014971;28;20181;-48
2023/06/02 04:56:28;;;;;;;6.93;3.03;;;;;;;;;;5014521;28;20208;-48
2023/06/02 04:58:54;;;;;;;5.18;2.90;;;;;;;;;;5013592;28;20183;-48
2023/06/02 05:01:20;;;;;;;10.07;3.25;;;;;;;;;;5015882;28;20185;-48
2023/06/02 05:03:46;;;;;;;8.25;3.15;;;;;;;;;;5012007;28;20173;-48
2023/06/02 05:06:12;;;;;;;8.70;2.92;;;;;;;;;;5005278;28;20188;-49
2023/06/02 05:08:38;;;;;;;8.65;3.30;;;;;;;;;;5013294;28;20248;-48
2023/06/02 05:11:05;;;;;;;8.73;3.30;;;;;;;;;;5012127;28;20204;-48
2023/06/02 05:13:31;;;;;;;6.13;2.88;;;;;;;;;;5012126;28;20196;-48
2023/06/02 05:15:57;;;;;;;10.00;3.40;;;;;;;;;;5013707;28;20623;-48
2023/06/02 05:18:23;;;;;;;12.23;3.42;;;;;;;;;;5013802;28;20191;-48
2023/06/02 05:20:52;;;;;;;10.60;3.00;;;;;;;;;;5010769;28;20193;-49
2023/06/02 05:23:18;;;;;;;10.07;3.08;;;;;;;;;;5009708;28;20228;-48
2023/06/02 05:25:44;;;;;;;6.60;2.78;;;;;;;;;;5013874;28;20565;-48
2023/06/02 05:28:10;;;;;;;9.82;2.80;;;;;;;;;;5005503;28;20613;-49
2023/06/02 05:30:36;;;;;;;9.02;2.83;;;;;;;;;;5008876;28;20194;-48
2023/06/02 05:33:02;;;;;;;6.35;2.70;;;;;;;;;;5010443;28;20206;-48
2023/06/02 05:35:28;;;;;;;7.60;2.65;;;;;;;;;;5007448;28;20714;-49
2023/06/02 05:37:53;;;;;;;7.75;3.00;;;;;;;;;;5013260;28;20172;-49
2023/06/02 05:40:19;;;;;;;6.90;3.00;;;;;;;;;;5006328;28;20185;-48
2023/06/02 05:42:45;;;;;;;7.85;3.15;;;;;;;;;;5014300;28;20184;-49
2023/06/02 05:45:11;;;;;;;6.80;2.90;;;;;;;;;;5014203;28;20439;-49
2023/06/02 05:47:37;;;;;;;9.43;2.88;;;;;;;;;;5014373;28;20184;-49
2023/06/02 05:50:03;;;;;;;9.05;2.70;;;;;;;;;;5018341;28;20179;-48
2023/06/02 05:52:29;;;;;;;6.60;2.90;;;;;;;;;;5013427;28;20246;-48
2023/06/02 05:54:55;;;;;;;11.50;3.08;;;;;;;;;;5012152;28;20255;-48
2023/06/02 05:57:21;;;;;;;11.60;3.15;;;;;;;;;;5013841;28;20194;-49
2023/06/02 05:59:47;;;;;;;11.25;3.25;;;;;;;;;;5014135;28;20191;-48
2023/06/02 06:02:13;;;;;;;9.45;3.03;;;;;;;;;;5014867;28;20283;-49
2023/06/02 06:04:39;;;;;;;7.70;2.80;;;;;;;;;;5009281;28;20459;-48
2023/06/02 06:07:06;;;;;;;7.30;2.85;;;;;;;;;;5004479;28;20205;-48
2023/06/02 06:09:32;;;;;;;9.60;3.85;;;;;;;;;;5011166;28;20188;-48
2023/06/02 06:11:58;;;;;;;12.13;2.83;;;;;;;;;;5013838;28;20488;-48
2023/06/02 06:14:24;;;;;;;7.15;2.67;;;;;;;;;;5013228;28;20188;-48
2023/06/02 06:16:50;;;;;;;7.63;3.00;;;;;;;;;;5012686;28;20211;-48
2023/06/02 06:19:16;;;;;;;8.88;3.38;;;;;;;;;;5012106;28;20168;-48
2023/06/02 06:21:42;;;;;;;10.57;3.25;;;;;;;;;;5004485;28;20196;-48
2023/06/02 06:24:08;;;;;;;12.27;3.15;;;;;;;;;;5012653;28;20191;-48
2023/06/02 06:26:34;;;;;;;8.40;2.70;;;;;;;;;;5005357;28;20279;-48
2023/06/02 06:29:00;;;;;;;9.98;3.05;;;;;;;;;;5013236;28;20222;-49
2023/06/02 06:31:26;;;;;;;5.53;2.78;;;;;;;;;;5012122;28;20461;-48
2023/06/02 06:33:52;;;;;;;10.30;3.35;;;;;;;;;;5011191;28;20181;-48
2023/06/02 06:36:18;;;;;;;9.07;2.80;;;;;;;;;;5010820;28;20223;-49
2023/06/02 06:38:44;;;;;;;10.45;3.40;;;;;;;;;;5012055;28;20188;-48
2023/06/02 06:41:10;;;;;;;6.50;2.50;;;;;;;;;;5013355;28;20187;-49
2023/06/02 06:43:37;;;;;;;5.78;2.55;;;;;;;;;;5013011;28;20255;-48
2023/06/02 06:46:02;;;;;;;7.53;2.88;;;;;;;;;;5008986;28;20191;-49
2023/06/02 06:48:28;;;;;;;11.95;2.78;;;;;;;;;;5006938;28;20443;-48
2023/06/02 06:50:54;;;;;;;10.32;3.00;;;;;;;;;;5012471;28;20222;-49
2023/06/02 06:53:20;;;;;;;8.00;2.90;;;;;;;;;;5007615;28;20334;-49
2023/06/02 06:55:46;;;;;;;11.43;2.85;;;;;;;;;;5012957;28;20561;-49
2023/06/02 06:58:12;;;;;;;10.98;3.20;;;;;;;;;;5013641;28;20183;-49
2023/06/02 07:00:39;;;;;;;8.25;3.17;;;;;;;;;;5011385;28;20184;-49
2023/06/02 07:03:04;;;;;;;10.07;2.92;;;;;;;;;;5013727;28;20175;-49
2023/06/02 07:05:31;;;;;;;9.93;3.03;;;;;;;;;;5011247;28;20196;-49
2023/06/02 07:07:57;;;;;;;8.15;3.15;;;;;;;;;;5007570;28;20204;-49
2023/06/02 07:10:23;;;;;;;9.90;2.85;;;;;;;;;;5013763;28;20842;-49
2023/06/02 07:12:49;;;;;;;13.23;3.45;;;;;;;;;;5013510;28;20191;-51
2023/06/02 07:15:15;;;;;;;9.70;3.10;;;;;;;;;;5012086;28;20212;-48
2023/06/02 07:17:41;;;;;;;9.95;3.20;;;;;;;;;;5012948;28;20256;-49
2023/06/02 07:20:11;;;;;;;7.82;2.65;;;;;;;;;;5010878;28;20291;-49
2023/06/02 07:22:37;;;;;;;6.88;3.20;;;;;;;;;;5012900;28;20234;-49
2023/06/02 07:25:03;;;;;;;12.60;3.22;;;;;;;;;;5008108;28;20195;-49
2023/06/02 07:27:30;;;;;;;17.17;3.63;;;;;;;;;;5016901;28;20177;-49
2023/06/02 07:29:56;;;;;;;8.50;3.35;;;;;;;;;;5013416;28;20276;-49
2023/06/02 07:32:21;;;;;;;10.02;3.40;;;;;;;;;;5014036;28;20255;-49
2023/06/02 07:34:47;;;;;;;11.15;3.33;;;;;;;;;;5012786;28;20177;-49
2023/06/02 07:37:13;;;;;;;8.95;3.08;;;;;;;;;;5016342;28;20212;-49
2023/06/02 07:39:39;;;;;;;11.55;3.00;;;;;;;;;;5015950;28;20196;-49
2023/06/02 07:42:06;;;;;;;13.00;3.40;;;;;;;;;;5010691;28;20442;-49
2023/06/02 07:44:31;;;;;;;6.88;2.70;;;;;;;;;;5015454;28;20188;-49
2023/06/02 07:46:57;;;;;;;9.10;3.30;;;;;;;;;;5016554;28;20226;-49
2023/06/02 07:49:23;;;;;;;8.95;3.17;;;;;;;;;;5016023;28;20458;-49
2023/06/02 07:51:49;;;;;;;14.30;3.40;;;;;;;;;;5013491;28;20184;-49
2023/06/02 07:54:15;;;;;;;7.80;3.00;;;;;;;;;;5014040;28;20220;-49
2023/06/02 07:56:41;;;;;;;8.55;3.08;;;;;;;;;;5012968;28;20273;-49
2023/06/02 07:59:11;;;;;;;12.25;3.10;;;;;;;;;;5016106;28;20251;-49
2023/06/02 08:01:37;;;;;;;9.00;3.20;;;;;;;;;;5013517;28;20517;-49
2023/06/02 08:04:03;;;;;;;9.98;3.00;;;;;;;;;;5009774;28;20181;-49
2023/06/02 08:06:29;;;;;;;15.48;3.53;;;;;;;;;;5012188;28;20272;-49
2023/06/02 08:08:55;;;;;;;7.43;3.17;;;;;;;;;;5013622;28;20268;-49
2023/06/02 08:11:22;;;;;;;8.23;2.83;;;;;;;;;;5008829;28;20362;-49
2023/06/02 08:13:48;;;;;;;8.95;3.25;;;;;;;;;;5012987;28;20493;-49
2023/06/02 08:16:14;;;;;;;8.00;3.40;;;;;;;;;;5014468;28;20256;-49
2023/06/02 08:18:40;;;;;;;10.23;3.78;;;;;;;;;;5015625;28;20199;-49
2023/06/02 08:21:06;;;;;;;9.48;3.10;;;;;;;;;;5012023;28;20282;-49
2023/06/02 08:23:32;;;;;;;7.07;3.22;;;;;;;;;;5012509;28;20346;-49
2023/06/02 08:25:58;;;;;;;12.65;4.03;;;;;;;;;;5012967;28;20600;-49
2023/06/02 08:28:25;;;;;;;11.82;3.60;;;;;;;;;;5013076;28;20263;-49
2023/06/02 08:30:51;;;;;;;11.18;3.60;;;;;;;;;;5013619;28;20172;-49
2023/06/02 08:33:18;;;;;;;8.48;3.40;;;;;;;;;;5015269;28;20509;-49
2023/06/02 08:35:46;;;;;;;9.07;3.30;;;;;;;;;;5012956;28;20196;-49
2023/06/02 08:38:17;;;;;;;7.15;3.15;;;;;;;;;;5014761;28;20592;-49
2023/06/02 08:40:43;;;;;;;10.75;4.13;;;;;;;;;;5016128;28;20208;-49
2023/06/02 08:43:09;;;;;;;13.77;3.80;;;;;;;;;;5013369;28;20172;-49
2023/06/02 08:45:35;;;;;;;7.15;3.15;;;;;;;;;;5010700;28;20188;-49
2023/06/02 08:48:05;;;;;;;6.75;3.00;;;;;;;;;;5004655;28;20196;-49
2023/06/02 08:50:36;;;;;;;10.70;3.17;;;;;;;;;;5014380;28;20192;-48
2023/06/02 08:53:06;;;;;;;8.88;3.33;;;;;;;;;;5015525;28;20187;-49
2023/06/02 08:55:39;;;;;;;10.80;3.50;;;;;;;;;;5013645;28;20203;-48
2023/06/02 08:58:05;;;;;;;11.25;3.95;;;;;;;;;;5014357;28;20271;-49
2023/06/02 09:00:31;;;;;;;11.65;3.80;;;;;;;;;;5012815;28;20184;-49
2023/06/02 09:02:57;;;;;;;8.15;3.42;;;;;;;;;;5014670;28;20283;-49
2023/06/02 09:05:24;;;;;;;10.95;3.70;;;;;;;;;;5010985;28;20548;-49
2023/06/02 09:08:05;;;;;;;9.25;3.08;;;;;;;;;;5008776;28;20208;-49
2023/06/02 09:10:32;;;;;;;9.40;3.88;;;;;;;;;;5014616;28;20863;-49
2023/06/02 09:12:58;;;;;;;12.15;3.72;;;;;;;;;;5013849;28;20180;-49
2023/06/02 09:15:24;;;;;;;9.55;3.83;;;;;;;;;;5015267;28;20288;-49
2023/06/02 09:17:51;;;;;;;8.02;3.40;;;;;;;;;;5006825;28;20176;-49
2023/06/02 09:20:17;;;;;;;13.77;3.78;;;;;;;;;;5005632;28;20199;-49
2023/06/02 09:22:56;;;;;;;11.85;3.95;;;;;;;;;;5012724;28;20461;-49
2023/06/02 09:25:26;;;;;;;11.13;3.90;;;;;;;;;;5006417;28;20318;-49
2023/06/02 09:27:56;;;;;;;7.70;3.30;;;;;;;;;;5008098;28;20220;-49
2023/06/02 09:30:23;;;;;;;8.18;3.33;;;;;;;;;;5009548;28;20203;-49
2023/06/02 09:32:59;;;;;;;10.40;3.28;;;;;;;;;;5007367;28;20268;-48
2023/06/02 09:35:41;;;;;;;9.20;2.95;;;;;;;;;;5014380;28;20835;-49
2023/06/02 09:38:11;;;;;;;8.40;3.28;;;;;;;;;;5013295;28;20177;-51
2023/06/02 09:40:38;;;;;;;10.82;3.72;;;;;;;;;;5014181;28;20231;-49
2023/06/02 09:43:04;;;;;;;7.45;3.35;;;;;;;;;;5009425;28;20431;-49
2023/06/02 09:45:30;;;;;;;11.75;3.22;;;;;;;;;;5014225;28;20176;-49
2023/06/02 09:47:57;;;;;;;10.23;3.58;;;;;;;;;;5014204;28;20180;-49
2023/06/02 09:50:33;;;;;;;13.25;3.40;;;;;;;;;;5013824;28;20181;-49
2023/06/02 09:53:00;;;;;;;12.07;3.90;;;;;;;;;;5008581;28;20200;-49
2023/06/02 09:55:26;;;;;;;7.82;2.95;;;;;;;;;;5011077;28;20480;-49
2023/06/02 09:57:53;;;;;;;11.40;3.75;;;;;;;;;;5018353;28;20188;-49
2023/06/02 10:00:19;;;;;;;11.27;3.80;;;;;;;;;;5012662;28;20180;-49
2023/06/02 10:02:46;;;;;;;10.15;3.13;;;;;;;;;;5013802;28;20180;-49
2023/06/02 10:05:12;;;;;;;7.30;3.00;;;;;;;;;;5007897;28;20223;-49
2023/06/02 10:07:57;;;;;;;8.50;3.25;;;;;;;;;;5013165;28;20283;-49
2023/06/02 10:10:30;;;;;;;8.40;3.40;;;;;;;;;;5013032;28;20563;-49
2023/06/02 10:13:15;;;;;;;11.32;3.38;;;;;;;;;;5017034;28;20206;-49
2023/06/02 10:16:01;;;;;;;7.43;2.95;;;;;;;;;;5011813;28;20307;-49
2023/06/02 10:18:50;;;;;;;12.10;3.45;;;;;;;;;;5009254;28;20188;-49
2023/06/02 10:21:29;;;;;;;8.77;3.63;;;;;;;;;;5012900;28;20184;-49
2023/06/02 10:24:07;;;;;;;12.52;3.40;;;;;;;;;;5011547;28;20584;-48
2023/06/02 10:26:43;;;;;;;9.95;3.03;;;;;;;;;;5029582;28;20191;-49
2023/06/02 10:29:09;;;;;;;9.63;3.67;;;;;;;;;;5008705;28;20531;-49
2023/06/02 10:31:35;;;;;;;7.15;3.90;;;;;;;;;;5010198;28;20267;-49
2023/06/02 10:34:01;;;;;;;9.50;3.38;;;;;;;;;;5009317;28;20230;-49
2023/06/02 10:36:28;;;;;;;9.25;2.85;;;;;;;;;;5013275;28;20243;-49
2023/06/02 10:38:55;;;;;;;5.40;2.72;;;;;;;;;;5005720;28;20202;-49
2023/06/02 10:41:41;;;;;;;6.28;3.30;;;;;;;;;;5012407;28;20612;-50
2023/06/02 10:44:24;;;;;;;7.72;3.28;;;;;;;;;;5005658;28;20208;-49
2023/06/02 10:47:10;;;;;;;4.70;3.10;;;;;;;;;;5010902;28;20458;-49
2023/06/02 10:49:51;;;;;;;9.15;3.08;;;;;;;;;;5011429;28;20192;-49
2023/06/02 10:52:17;;;;;;;9.98;3.22;;;;;;;;;;5005866;28;20180;-49
2023/06/02 10:54:43;;;;;;;7.75;3.40;;;;;;;;;;5008682;28;20194;-49
2023/06/02 10:57:09;;;;;;;7.47;2.95;;;;;;;;;;5010430;28;20216;-49
2023/06/02 10:59:36;;;;;;;11.63;3.42;;;;;;;;;;5014148;28;20208;-49
2023/06/02 11:02:02;;;;;;;7.05;3.22;;;;;;;;;;5015222;28;20172;-49
2023/06/02 11:04:29;;;;;;;6.95;2.42;;;;;;;;;;5013853;28;20207;-49
2023/06/02 11:07:18;;;;;;;8.95;2.92;;;;;;;;;;5016565;28;20254;-49
2023/06/02 11:09:44;;;;;;;6.43;2.97;;;;;;;;;;5012571;28;20196;-49
2023/06/02 11:12:10;;;;;;;7.25;3.05;;;;;;;;;;5011129;28;20564;-49
2023/06/02 11:14:55;;;;;;;6.95;3.13;;;;;;;;;;5016013;28;20195;-49
2023/06/02 11:17:34;;;;;;;11.70;3.50;;;;;;;;;;5008599;28;20241;-49
2023/06/02 11:20:00;;;;;;;10.50;2.90;;;;;;;;;;5017021;28;20566;-48
2023/06/02 11:22:27;;;;;;;9.50;2.83;;;;;;;;;;5014363;28;20191;-48
2023/06/02 11:24:53;;;;;;;11.75;2.80;;;;;;;;;;5016700;28;20249;-49
2023/06/02 11:27:19;;;;;;;11.13;3.20;;;;;;;;;;5016923;28;20184;-49
2023/06/02 11:30:03;;;;;;;13.75;3.47;;;;;;;;;;5014893;28;20201;-49
2023/06/02 11:32:28;;;;;;;11.88;4.20;;;;;;;;;;5014251;28;20283;-49
2023/06/02 11:34:59;;;;;;;14.38;2.63;;;;;;;;;;5016033;28;20267;-48
2023/06/02 11:37:25;;;;;;;11.60;3.63;;;;;;;;;;5010613;28;20208;-48
2023/06/02 11:39:54;;;;;;;13.55;3.38;;;;;;;;;;5016703;28;20179;-49
2023/06/02 11:42:20;;;;;;;12.27;2.58;;;;;;;;;;5016407;28;20270;-49
2023/06/02 11:44:47;;;;;;;14.38;3.20;;;;;;;;;;5015428;28;20560;-49
2023/06/02 11:47:17;;;;;;;7.47;2.50;;;;;;;;;;5015257;28;20241;-48
2023/06/02 11:49:42;;;;;;;9.55;2.55;;;;;;;;;;5016987;28;20185;-49
2023/06/02 11:52:09;;;;;;;4.68;1.98;;;;;;;;;;5015765;28;20198;-48
2023/06/02 11:54:48;;;;;;;10.98;2.58;;;;;;;;;;5015206;28;20216;-49
2023/06/02 11:57:24;;;;;;;10.07;2.85;;;;;;;;;;5015241;28;20212;-49
2023/06/02 12:00:09;;;;;;;7.05;2.22;;;;;;;;;;5012741;28;20258;-48
2023/06/02 12:02:35;;;;;;;5.43;2.13;;;;;;;;;;5016285;28;20185;-48
2023/06/02 12:05:01;;;;;;;7.82;2.33;;;;;;;;;;5014059;28;20238;-49
2023/06/02 12:07:27;;;;;;;7.00;2.65;;;;;;;;;;5013913;28;20330;-49
2023/06/02 12:09:53;;;;;;;6.25;2.33;;;;;;;;;;5010591;28;20184;-48
2023/06/02 12:12:20;;;;;;;6.90;2.10;;;;;;;;;;5013002;28;20191;-48
2023/06/02 12:14:46;;;;;;;7.60;2.17;;;;;;;;;;5011408;28;20180;-49
2023/06/02 12:17:12;;;;;;;7.88;2.42;;;;;;;;;;5016031;28;20469;-49
2023/06/02 12:19:37;;;;;;;4.43;1.90;;;;;;;;;;5015711;28;20181;-49
2023/06/02 12:22:11;;;;;;;7.68;2.53;;;;;;;;;;5007701;28;20177;-49
2023/06/02 12:24:39;;;;;;;7.40;2.17;;;;;;;;;;5013657;28;20286;-49
2023/06/02 12:27:06;;;;;;;6.32;2.08;;;;;;;;;;5015691;28;20250;-49
2023/06/02 12:29:33;;;;;;;7.03;2.35;;;;;;;;;;5015179;28;20464;-49
2023/06/02 12:32:00;;;;;;;7.70;2.45;;;;;;;;;;5015611;28;20244;-49
2023/06/02 12:34:26;;;;;;;6.53;2.13;;;;;;;;;;5010118;28;20177;-49
2023/06/02 12:36:52;;;;;;;5.30;2.30;;;;;;;;;;5010786;28;20230;-49
2023/06/02 12:39:18;;;;;;;8.68;2.70;;;;;;;;;;5016710;28;20179;-49
2023/06/02 12:41:44;;;;;;;9.80;2.70;;;;;;;;;;5014491;28;20263;-49
2023/06/02 12:44:10;;;;;;;8.60;2.70;;;;;;;;;;5011781;28;20247;-49
2023/06/02 12:46:36;;;;;;;8.00;2.50;;;;;;;;;;5013346;28;20255;-49
2023/06/02 12:49:03;;;;;;;4.43;2.25;;;;;;;;;;5011895;28;20207;-49
2023/06/02 12:51:29;;;;;;;9.15;2.20;;;;;;;;;;5006893;28;20187;-49
2023/06/02 12:53:55;;;;;;;7.68;2.50;;;;;;;;;;5015754;28;20229;-49
2023/06/02 12:56:21;;;;;;;5.97;2.20;;;;;;;;;;5013513;28;20655;-49
2023/06/02 12:58:48;;;;;;;6.40;2.83;;;;;;;;;;5013147;28;20187;-49
2023/06/02 13:01:13;;;;;;;6.45;1.95;;;;;;;;;;5014103;28;20476;-48
2023/06/02 13:03:42;;;;;;;6.47;2.47;;;;;;;;;;5018892;28;20234;-49
2023/06/02 13:06:09;;;;;;;5.00;2.20;;;;;;;;;;5008123;28;20188;-49
2023/06/02 13:08:37;;;;;;;5.78;2.13;;;;;;;;;;5008832;28;20187;-49
2023/06/02 13:11:03;;;;;;;5.55;2.22;;;;;;;;;;5006322;28;20215;-49
2023/06/02 13:13:29;;;;;;;8.93;2.15;;;;;;;;;;5012055;28;20203;-49
2023/06/02 13:15:55;;;;;;;6.30;1.85;;;;;;;;;;5018675;28;20199;-49
2023/06/02 13:18:21;;;;;;;7.82;2.28;;;;;;;;;;5007464;28;20181;-52
2023/06/02 13:20:47;;;;;;;6.47;2.22;;;;;;;;;;5005457;28;20832;-49
2023/06/02 13:23:13;;;;;;;4.35;1.70;;;;;;;;;;5008440;28;20202;-49
2023/06/02 13:25:41;;;;;;;6.97;2.40;;;;;;;;;;5007729;28;20192;-49
2023/06/02 13:28:07;;;;;;;6.63;2.47;;;;;;;;;;5014204;28;20495;-49
2023/06/02 13:30:33;;;;;;;9.00;2.08;;;;;;;;;;5013866;28;20243;-49
2023/06/02 13:32:59;;;;;;;4.47;1.95;;;;;;;;;;5002702;28;20185;-48
2023/06/02 13:35:25;;;;;;;4.78;2.10;;;;;;;;;;5010360;28;20491;-49
2023/06/02 13:37:52;;;;;;;6.15;1.95;;;;;;;;;;5014857;28;20180;-49
2023/06/02 13:40:18;;;;;;;5.82;2.47;;;;;;;;;;5013414;28;20173;-49
2023/06/02 13:42:44;;;;;;;8.63;2.47;;;;;;;;;;5014707;28;20458;-49
2023/06/02 13:45:10;;;;;;;7.78;2.40;;;;;;;;;;5013788;28;20177;-49
2023/06/02 13:47:36;;;;;;;8.00;2.30;;;;;;;;;;5014488;28;20200;-49
2023/06/02 13:50:03;;;;;;;10.00;2.40;;;;;;;;;;5013463;28;20211;-49
2023/06/02 13:52:28;;;;;;;4.65;2.13;;;;;;;;;;5014434;28;20184;-50
2023/06/02 13:54:55;;;;;;;9.05;2.70;;;;;;;;;;5014003;28;20180;-49
2023/06/02 13:57:21;;;;;;;7.88;2.45;;;;;;;;;;5014220;28;20283;-49
2023/06/02 13:59:47;;;;;;;5.25;2.50;;;;;;;;;;5013820;28;20212;-49
2023/06/02 14:02:13;;;;;;;6.03;2.58;;;;;;;;;;5012990;28;20216;-49
2023/06/02 14:04:41;;;;;;;8.23;2.30;;;;;;;;;;5027862;28;20543;-49
2023/06/02 14:07:07;;;;;;;5.82;2.15;;;;;;;;;;5008003;28;20284;-49
2023/06/02 14:09:33;;;;;;;6.60;2.85;;;;;;;;;;5006045;28;20518;-49
2023/06/02 14:11:59;;;;;;;6.85;2.25;;;;;;;;;;5012292;28;20198;-49
2023/06/02 14:14:25;;;;;;;9.57;2.30;;;;;;;;;;5009965;28;20196;-49
2023/06/02 14:16:51;;;;;;;8.48;2.15;;;;;;;;;;5013693;28;20305;-49
2023/06/02 14:19:18;;;;;;;7.15;2.25;;;;;;;;;;5018209;28;20525;-49
2023/06/02 14:21:44;;;;;;;7.90;2.63;;;;;;;;;;5010263;28;20188;-49
2023/06/02 14:24:10;;;;;;;4.95;2.20;;;;;;;;;;5012607;28;20433;-49
2023/06/02 14:26:36;;;;;;;6.28;2.33;;;;;;;;;;5009525;28;20199;-48
2023/06/02 14:29:02;;;;;;;11.70;2.50;;;;;;;;;;5010864;28;20177;-49
2023/06/02 14:31:28;;;;;;;6.78;2.20;;;;;;;;;;5010901;28;20199;-50
2023/06/02 14:33:54;;;;;;;6.60;2.40;;;;;;;;;;5012435;28;20452;-49
2023/06/02 14:36:20;;;;;;;6.40;2.25;;;;;;;;;;5017091;28;20208;-50
2023/06/02 14:38:46;;;;;;;5.45;1.98;;;;;;;;;;5016613;28;20255;-49
2023/06/02 14:41:12;;;;;;;8.13;2.17;;;;;;;;;;5013727;28;20216;-50